Time;durP1;ratioP1;P1;durP2;ratioP2;P2;SDS_P1;SDS_P2;PMS_P1;PMS_P2;Temp;Humidity;BMP_temperature;BMP_pressure;BME280_temperature;BME280_humidity;BME280_pressure;Samples;Min_cycle;Max_cycle;Signal;HPM_P1;HPM_P2
2021/01/23 00:00:13;;;;;;;51.58;27.40;;;;;;;;;;5015135;28;20018;-72
2021/01/23 00:02:39;;;;;;;42.38;22.30;;;;;;;;;;5015626;28;20484;-71
2021/01/23 00:05:04;;;;;;;37.20;21.48;;;;;;;;;;5015255;28;20096;-71
2021/01/23 00:07:30;;;;;;;32.35;18.67;;;;;;;;;;5014508;28;20041;-71
2021/01/23 00:09:56;;;;;;;39.83;22.80;;;;;;;;;;5013928;28;20065;-71
2021/01/23 00:12:22;;;;;;;49.03;24.02;;;;;;;;;;5015160;28;20021;-71
2021/01/23 00:14:47;;;;;;;40.40;23.52;;;;;;;;;;5014932;28;20525;-70
2021/01/23 00:17:14;;;;;;;35.13;19.30;;;;;;;;;;5014544;28;20030;-70
2021/01/23 00:19:39;;;;;;;37.78;21.00;;;;;;;;;;5014687;28;20515;-71
2021/01/23 00:22:07;;;;;;;26.48;15.20;;;;;;;;;;5014473;28;20037;-70
2021/01/23 00:24:38;;;;;;;24.90;13.05;;;;;;;;;;5014422;28;20357;-70
2021/01/23 00:27:04;;;;;;;49.22;23.65;;;;;;;;;;5014738;28;20057;-70
2021/01/23 00:29:29;;;;;;;34.10;18.55;;;;;;;;;;5046337;28;20068;-70
2021/01/23 00:31:57;;;;;;;34.03;18.50;;;;;;;;;;5014509;28;20487;-70
2021/01/23 00:34:29;;;;;;;33.88;18.02;;;;;;;;;;5014395;28;20072;-71
2021/01/23 00:36:55;;;;;;;29.33;16.48;;;;;;;;;;5022044;28;20030;-71
2021/01/23 00:39:20;;;;;;;25.38;13.68;;;;;;;;;;5033897;28;20431;-71
2021/01/23 00:41:46;;;;;;;21.95;13.15;;;;;;;;;;5032905;28;20112;-72
2021/01/23 00:44:11;;;;;;;21.88;13.23;;;;;;;;;;5034104;28;20068;-72
2021/01/23 00:46:37;;;;;;;21.15;12.20;;;;;;;;;;5033912;28;20463;-71
2021/01/23 00:49:02;;;;;;;23.67;12.55;;;;;;;;;;5034017;28;20071;-71
2021/01/23 00:51:28;;;;;;;21.00;12.00;;;;;;;;;;5033896;28;20076;-71
2021/01/23 00:53:58;;;;;;;25.45;14.65;;;;;;;;;;5032454;28;20021;-71
2021/01/23 00:56:26;;;;;;;33.55;16.75;;;;;;;;;;5031639;28;20045;-71
2021/01/23 00:58:51;;;;;;;37.25;18.17;;;;;;;;;;5032404;28;20021;-72
2021/01/23 01:01:17;;;;;;;61.88;27.83;;;;;;;;;;5033780;28;20053;-72
2021/01/23 01:03:44;;;;;;;60.30;27.52;;;;;;;;;;5032726;28;20024;-71
2021/01/23 01:06:11;;;;;;;61.70;29.17;;;;;;;;;;5031958;28;20080;-72
2021/01/23 01:08:37;;;;;;;55.95;28.15;;;;;;;;;;5033393;28;20041;-72
2021/01/23 01:11:02;;;;;;;48.38;25.67;;;;;;;;;;5033506;28;20438;-71
2021/01/23 01:13:28;;;;;;;38.45;21.45;;;;;;;;;;5033621;28;20533;-71
2021/01/23 01:15:54;;;;;;;30.25;15.57;;;;;;;;;;5033335;28;20504;-71
2021/01/23 01:18:21;;;;;;;26.83;15.45;;;;;;;;;;5032750;28;20053;-71
2021/01/23 01:20:46;;;;;;;23.60;13.18;;;;;;;;;;5033918;28;20030;-71
2021/01/23 01:23:12;;;;;;;17.70;11.65;;;;;;;;;;5033620;28;20552;-71
2021/01/23 01:25:37;;;;;;;17.15;10.38;;;;;;;;;;5033230;28;20112;-71
2021/01/23 01:28:04;;;;;;;12.65;7.90;;;;;;;;;;5032451;28;20021;-71
2021/01/23 01:30:29;;;;;;;11.80;7.82;;;;;;;;;;5065193;28;20053;-71
2021/01/23 01:32:55;;;;;;;11.90;7.70;;;;;;;;;;5033569;28;20071;-71
2021/01/23 01:35:21;;;;;;;11.13;6.97;;;;;;;;;;5031379;28;20032;-71
2021/01/23 01:37:47;;;;;;;10.27;7.18;;;;;;;;;;5033466;28;20365;-71
2021/01/23 01:40:13;;;;;;;8.57;6.30;;;;;;;;;;5033367;28;20060;-71
2021/01/23 01:42:39;;;;;;;9.80;7.07;;;;;;;;;;5033831;28;20064;-72
2021/01/23 01:45:11;;;;;;;12.23;7.30;;;;;;;;;;5033727;28;20063;-72
2021/01/23 01:47:37;;;;;;;12.43;8.02;;;;;;;;;;5033474;28;20034;-72
2021/01/23 01:50:06;;;;;;;11.52;7.38;;;;;;;;;;5033607;28;20072;-72
2021/01/23 01:52:31;;;;;;;8.80;5.88;;;;;;;;;;5033301;28;20030;-71
2021/01/23 01:54:58;;;;;;;7.55;5.28;;;;;;;;;;5033172;28;20009;-71
2021/01/23 01:57:23;;;;;;;7.60;5.38;;;;;;;;;;5032930;28;20037;-71
2021/01/23 01:59:49;;;;;;;6.90;4.90;;;;;;;;;;5033019;28;20033;-71
2021/01/23 02:02:32;;;;;;;7.05;5.40;;;;;;;;;;5033108;28;20029;-71
2021/01/23 02:04:59;;;;;;;10.05;6.53;;;;;;;;;;5032960;28;20033;-71
2021/01/23 02:07:28;;;;;;;15.00;7.00;;;;;;;;;;5033835;28;20079;-72
2021/01/23 02:09:57;;;;;;;10.93;7.18;;;;;;;;;;5035289;28;20038;-71
2021/01/23 02:12:32;;;;;;;11.13;7.53;;;;;;;;;;5035656;28;20081;-71
2021/01/23 02:14:58;;;;;;;9.40;5.63;;;;;;;;;;5036918;28;20036;-72
2021/01/23 02:17:27;;;;;;;6.10;4.30;;;;;;;;;;5035610;28;20021;-72
2021/01/23 02:20:12;;;;;;;6.82;4.20;;;;;;;;;;5036972;28;20029;-72
2021/01/23 02:22:56;;;;;;;12.98;5.90;;;;;;;;;;5036619;28;20038;-72
2021/01/23 02:25:23;;;;;;;8.15;5.72;;;;;;;;;;5036508;28;20041;-72
2021/01/23 02:28:09;;;;;;;8.38;5.10;;;;;;;;;;5036369;28;20108;-72
2021/01/23 02:30:44;;;;;;;9.38;5.18;;;;;;;;;;5032767;28;20037;-72
2021/01/23 02:33:12;;;;;;;9.82;5.13;;;;;;;;;;5018789;28;20036;-72
2021/01/23 02:35:37;;;;;;;7.32;5.00;;;;;;;;;;5036444;28;20029;-72
2021/01/23 02:38:06;;;;;;;10.48;5.57;;;;;;;;;;5036398;28;20029;-72
2021/01/23 02:40:32;;;;;;;8.30;5.53;;;;;;;;;;5036680;28;20048;-72
2021/01/23 02:42:58;;;;;;;7.63;5.55;;;;;;;;;;5036323;28;20124;-72
2021/01/23 02:45:23;;;;;;;8.43;5.65;;;;;;;;;;5035724;28;20583;-72
2021/01/23 02:47:49;;;;;;;6.95;4.85;;;;;;;;;;5034843;28;20026;-72
2021/01/23 02:50:15;;;;;;;6.53;5.32;;;;;;;;;;5034958;28;20460;-72
2021/01/23 02:52:46;;;;;;;9.77;5.60;;;;;;;;;;5036199;28;20036;-72
2021/01/23 02:55:15;;;;;;;6.50;4.72;;;;;;;;;;5036059;28;20022;-72
2021/01/23 02:57:41;;;;;;;7.20;4.60;;;;;;;;;;5036410;28;20437;-72
2021/01/23 03:00:09;;;;;;;9.27;5.47;;;;;;;;;;5034930;28;20064;-72
2021/01/23 03:02:41;;;;;;;10.40;5.80;;;;;;;;;;5035866;28;20021;-72
2021/01/23 03:05:08;;;;;;;10.95;7.28;;;;;;;;;;5036132;28;20033;-72
2021/01/23 03:07:36;;;;;;;9.57;6.43;;;;;;;;;;5035982;28;20075;-72
2021/01/23 03:10:05;;;;;;;13.32;7.38;;;;;;;;;;5035305;28;20034;-72
2021/01/23 03:12:30;;;;;;;10.63;5.47;;;;;;;;;;5035796;28;20052;-71
2021/01/23 03:14:56;;;;;;;6.78;5.22;;;;;;;;;;5035539;28;20025;-71
2021/01/23 03:17:22;;;;;;;7.70;5.22;;;;;;;;;;5035691;28;20021;-71
2021/01/23 03:19:48;;;;;;;8.38;4.90;;;;;;;;;;5034949;28;20029;-71
2021/01/23 03:22:14;;;;;;;8.43;4.70;;;;;;;;;;5034193;28;20537;-71
2021/01/23 03:24:40;;;;;;;5.65;4.40;;;;;;;;;;5034244;28;20030;-71
2021/01/23 03:27:05;;;;;;;7.97;4.70;;;;;;;;;;5035270;28;20083;-71
2021/01/23 03:29:32;;;;;;;8.77;5.07;;;;;;;;;;5035165;28;20071;-72
2021/01/23 03:31:57;;;;;;;8.18;4.38;;;;;;;;;;5035358;28;20018;-71
2021/01/23 03:34:22;;;;;;;6.88;4.10;;;;;;;;;;5017531;28;20037;-70
2021/01/23 03:36:48;;;;;;;6.00;4.10;;;;;;;;;;5033696;28;20021;-70
2021/01/23 03:39:13;;;;;;;8.38;4.45;;;;;;;;;;5035181;28;20022;-70
2021/01/23 03:41:40;;;;;;;8.02;4.13;;;;;;;;;;5035422;28;20025;-70
2021/01/23 03:44:06;;;;;;;6.15;4.45;;;;;;;;;;5035145;28;20033;-70
2021/01/23 03:46:32;;;;;;;9.15;4.68;;;;;;;;;;5034797;28;20032;-71
2021/01/23 03:48:57;;;;;;;8.30;4.10;;;;;;;;;;5034853;28;20024;-71
2021/01/23 03:51:23;;;;;;;5.85;4.40;;;;;;;;;;5033545;28;20096;-71
2021/01/23 03:53:49;;;;;;;8.35;4.78;;;;;;;;;;5034972;28;20112;-71
2021/01/23 03:56:14;;;;;;;6.80;4.70;;;;;;;;;;5034908;28;20021;-71
2021/01/23 03:58:39;;;;;;;9.35;4.82;;;;;;;;;;5034871;28;20048;-71
2021/01/23 04:01:05;;;;;;;5.88;4.28;;;;;;;;;;5035127;28;20476;-72
2021/01/23 04:03:31;;;;;;;6.65;5.20;;;;;;;;;;5034860;28;20033;-72
2021/01/23 04:05:56;;;;;;;7.35;5.18;;;;;;;;;;5034930;28;20036;-72
2021/01/23 04:08:22;;;;;;;8.88;5.07;;;;;;;;;;5034671;28;20032;-72
2021/01/23 04:10:47;;;;;;;7.53;5.10;;;;;;;;;;5034370;28;20047;-71
2021/01/23 04:13:13;;;;;;;11.63;5.47;;;;;;;;;;5033421;28;20087;-72
2021/01/23 04:15:39;;;;;;;6.75;5.18;;;;;;;;;;5034627;28;20070;-71
2021/01/23 04:18:05;;;;;;;8.32;5.10;;;;;;;;;;5034383;28;20132;-71
2021/01/23 04:20:31;;;;;;;9.65;5.53;;;;;;;;;;5034342;28;20460;-70
2021/01/23 04:22:56;;;;;;;7.30;5.60;;;;;;;;;;5034483;28;20068;-70
2021/01/23 04:25:22;;;;;;;9.15;5.97;;;;;;;;;;5034078;28;20388;-70
2021/01/23 04:27:47;;;;;;;12.60;6.97;;;;;;;;;;5034302;28;20026;-71
2021/01/23 04:30:13;;;;;;;20.77;11.25;;;;;;;;;;5034212;28;20013;-71
2021/01/23 04:32:39;;;;;;;16.75;11.55;;;;;;;;;;5034266;28;20079;-70
2021/01/23 04:35:06;;;;;;;16.80;13.05;;;;;;;;;;5034364;28;20460;-71
2021/01/23 04:37:31;;;;;;;12.57;9.65;;;;;;;;;;5034053;28;20064;-71
2021/01/23 04:39:57;;;;;;;11.10;7.35;;;;;;;;;;5033137;28;20057;-71
2021/01/23 04:42:23;;;;;;;9.70;6.03;;;;;;;;;;5034201;28;20040;-71
2021/01/23 04:44:49;;;;;;;10.00;6.53;;;;;;;;;;5034085;28;20100;-71
2021/01/23 04:47:15;;;;;;;9.52;7.00;;;;;;;;;;5032759;28;20029;-72
2021/01/23 04:49:41;;;;;;;12.00;6.82;;;;;;;;;;5033902;28;20409;-71
2021/01/23 04:52:06;;;;;;;10.32;6.70;;;;;;;;;;5016263;28;20233;-70
2021/01/23 04:54:33;;;;;;;10.20;7.30;;;;;;;;;;5032772;28;20017;-70
2021/01/23 04:57:00;;;;;;;10.75;6.80;;;;;;;;;;5033995;28;20029;-70
2021/01/23 04:59:27;;;;;;;9.05;5.75;;;;;;;;;;5034081;28;20022;-71
2021/01/23 05:02:16;;;;;;;7.65;5.40;;;;;;;;;;5033592;28;20034;-71
2021/01/23 05:04:46;;;;;;;11.93;5.60;;;;;;;;;;5033564;28;20037;-71
2021/01/23 05:07:34;;;;;;;7.50;5.22;;;;;;;;;;5033884;28;20495;-71
2021/01/23 05:10:16;;;;;;;6.45;4.90;;;;;;;;;;5036859;28;20038;-71
2021/01/23 05:12:44;;;;;;;7.88;4.78;;;;;;;;;;5033447;28;20050;-70
2021/01/23 05:15:25;;;;;;;7.82;4.63;;;;;;;;;;5033433;28;20464;-70
2021/01/23 05:17:52;;;;;;;8.05;4.40;;;;;;;;;;5032355;28;20349;-70
2021/01/23 05:20:36;;;;;;;5.40;4.35;;;;;;;;;;5033528;28;20064;-70
2021/01/23 05:23:08;;;;;;;8.10;4.70;;;;;;;;;;5033260;28;20035;-70
2021/01/23 05:25:37;;;;;;;5.18;4.13;;;;;;;;;;5033270;28;20038;-70
2021/01/23 05:28:03;;;;;;;6.03;4.75;;;;;;;;;;5033501;28;20025;-71
2021/01/23 05:30:41;;;;;;;9.27;4.45;;;;;;;;;;5033447;28;20025;-70
2021/01/23 05:33:08;;;;;;;5.55;4.38;;;;;;;;;;5033619;28;20091;-70
2021/01/23 05:35:34;;;;;;;8.43;4.00;;;;;;;;;;5033413;28;20009;-70
2021/01/23 05:37:59;;;;;;;7.38;4.20;;;;;;;;;;5033366;28;20087;-70
2021/01/23 05:40:31;;;;;;;7.78;3.75;;;;;;;;;;5033390;28;20018;-70
2021/01/23 05:42:57;;;;;;;6.45;4.10;;;;;;;;;;5034893;28;20029;-70
2021/01/23 05:45:22;;;;;;;5.75;4.20;;;;;;;;;;5037428;28;20020;-70
2021/01/23 05:47:48;;;;;;;5.70;4.18;;;;;;;;;;5037592;28;20025;-70
2021/01/23 05:50:13;;;;;;;6.30;4.35;;;;;;;;;;5037303;28;20488;-70
2021/01/23 05:52:39;;;;;;;5.82;4.50;;;;;;;;;;5037226;28;20022;-70
2021/01/23 05:55:05;;;;;;;9.13;4.60;;;;;;;;;;5037049;28;20006;-70
2021/01/23 05:57:30;;;;;;;8.18;4.80;;;;;;;;;;5036251;28;20034;-70
2021/01/23 05:59:56;;;;;;;9.93;5.00;;;;;;;;;;5035956;28;20029;-71
2021/01/23 06:02:22;;;;;;;11.40;7.20;;;;;;;;;;5037365;28;20025;-71
2021/01/23 06:04:48;;;;;;;21.50;13.30;;;;;;;;;;5037182;28;20021;-70
2021/01/23 06:07:34;;;;;;;23.33;20.85;;;;;;;;;;5037292;28;20384;-70
2021/01/23 06:10:00;;;;;;;11.60;8.27;;;;;;;;;;5032107;28;20041;-71
2021/01/23 06:12:32;;;;;;;74.63;47.13;;;;;;;;;;5037219;28;20064;-71
2021/01/23 06:14:58;;;;;;;20.55;16.40;;;;;;;;;;5036656;28;20026;-71
2021/01/23 06:17:41;;;;;;;14.00;10.10;;;;;;;;;;5037000;28;20021;-70
2021/01/23 06:20:07;;;;;;;10.68;8.95;;;;;;;;;;5036769;28;20057;-71
2021/01/23 06:22:51;;;;;;;11.75;7.40;;;;;;;;;;5036707;28;20420;-70
2021/01/23 06:25:17;;;;;;;15.52;9.15;;;;;;;;;;5036893;28;20032;-70
2021/01/23 06:27:47;;;;;;;14.20;9.00;;;;;;;;;;5036621;28;20021;-71
2021/01/23 06:30:25;;;;;;;15.40;9.73;;;;;;;;;;5036447;28;20030;-70
2021/01/23 06:32:51;;;;;;;12.40;8.27;;;;;;;;;;5036523;28;20099;-70
2021/01/23 06:35:17;;;;;;;12.43;8.13;;;;;;;;;;5036508;28;20014;-70
2021/01/23 06:37:43;;;;;;;12.20;7.38;;;;;;;;;;5036250;28;20110;-70
2021/01/23 06:40:14;;;;;;;11.25;8.00;;;;;;;;;;5036221;28;20053;-70
2021/01/23 06:42:49;;;;;;;11.07;8.15;;;;;;;;;;5034909;28;20037;-70
2021/01/23 06:45:18;;;;;;;13.05;9.35;;;;;;;;;;5036022;28;20025;-70
2021/01/23 06:47:44;;;;;;;10.07;7.85;;;;;;;;;;5035006;28;20431;-70
2021/01/23 06:50:10;;;;;;;9.82;7.60;;;;;;;;;;5036282;28;20028;-70
2021/01/23 06:52:45;;;;;;;13.35;8.80;;;;;;;;;;5033808;28;20013;-71
2021/01/23 06:55:12;;;;;;;17.42;12.18;;;;;;;;;;5025518;28;20030;-70
2021/01/23 06:57:47;;;;;;;84.40;53.65;;;;;;;;;;5034025;28;20349;-70
2021/01/23 07:00:13;;;;;;;95.53;57.90;;;;;;;;;;5030474;28;20029;-70
2021/01/23 07:02:38;;;;;;;26.42;16.83;;;;;;;;;;5032726;28;20025;-70
2021/01/23 07:05:07;;;;;;;194.32;138.82;;;;;;;;;;5035869;28;20099;-70
2021/01/23 07:07:38;;;;;;;86.85;59.08;;;;;;;;;;5035745;28;20540;-70
2021/01/23 07:10:06;;;;;;;147.30;96.60;;;;;;;;;;5035549;28;20411;-70
2021/01/23 07:12:36;;;;;;;140.00;99.78;;;;;;;;;;5033391;28;20496;-70
2021/01/23 07:15:10;;;;;;;134.93;104.60;;;;;;;;;;5035749;28;20112;-70
2021/01/23 07:17:36;;;;;;;112.30;94.70;;;;;;;;;;5035530;28;20033;-70
2021/01/23 07:20:09;;;;;;;146.20;110.45;;;;;;;;;;5035778;28;20049;-70
2021/01/23 07:22:38;;;;;;;18.00;12.95;;;;;;;;;;5035700;28;20068;-71
2021/01/23 07:25:05;;;;;;;26.42;21.25;;;;;;;;;;5035584;28;20116;-70
2021/01/23 07:27:32;;;;;;;10.45;8.43;;;;;;;;;;5035591;28;20029;-67
2021/01/23 07:29:58;;;;;;;49.90;36.58;;;;;;;;;;5035640;28;20018;-71
2021/01/23 07:32:34;;;;;;;22.27;14.27;;;;;;;;;;5032594;28;20399;-71
2021/01/23 07:35:00;;;;;;;12.20;9.30;;;;;;;;;;5029428;28;20460;-70
2021/01/23 07:37:41;;;;;;;10.43;7.90;;;;;;;;;;5035443;28;20048;-70
2021/01/23 07:40:09;;;;;;;9.73;7.65;;;;;;;;;;5027540;28;20674;-71
2021/01/23 07:42:35;;;;;;;12.52;7.97;;;;;;;;;;5033448;28;20033;-71
2021/01/23 07:45:03;;;;;;;10.55;7.57;;;;;;;;;;5033322;28;20025;-70
2021/01/23 07:47:28;;;;;;;10.07;7.65;;;;;;;;;;5033079;28;20025;-71
2021/01/23 07:50:09;;;;;;;11.85;7.13;;;;;;;;;;5031589;28;20037;-71
2021/01/23 07:52:35;;;;;;;10.05;7.43;;;;;;;;;;5033079;28;20026;-70
2021/01/23 07:55:02;;;;;;;12.93;8.60;;;;;;;;;;5031655;28;20072;-71
2021/01/23 07:57:28;;;;;;;17.23;11.20;;;;;;;;;;5032822;28;20543;-70
2021/01/23 07:59:53;;;;;;;36.17;19.35;;;;;;;;;;5032322;28;20032;-71
2021/01/23 08:02:19;;;;;;;13.52;9.55;;;;;;;;;;5033622;28;20087;-71
2021/01/23 08:04:49;;;;;;;24.27;14.18;;;;;;;;;;5033387;28;20409;-71
2021/01/23 08:07:16;;;;;;;;;;;;;;;;;;5034318;28;20033;-71
2021/01/23 08:09:41;;;;;;;37.88;20.50;;;;;;;;;;5034045;28;20356;-71
2021/01/23 08:12:19;;;;;;;39.00;21.25;;;;;;;;;;5034776;28;20037;-71
2021/01/23 08:14:52;;;;;;;30.77;18.48;;;;;;;;;;5034931;28;20112;-71
2021/01/23 08:17:18;;;;;;;18.50;11.18;;;;;;;;;;5034882;28;20029;-71
2021/01/23 08:19:48;;;;;;;17.15;10.30;;;;;;;;;;5034808;28;20334;-71
2021/01/23 08:22:13;;;;;;;14.80;9.50;;;;;;;;;;5034136;28;20087;-71
2021/01/23 08:24:39;;;;;;;17.45;10.15;;;;;;;;;;5033424;28;20022;-70
2021/01/23 08:27:23;;;;;;;15.75;8.05;;;;;;;;;;5034187;28;20078;-69
2021/01/23 08:29:50;;;;;;;14.73;8.00;;;;;;;;;;5034457;28;20102;-69
2021/01/23 08:32:15;;;;;;;9.95;6.63;;;;;;;;;;5033389;28;20017;-70
2021/01/23 08:34:42;;;;;;;9.07;6.68;;;;;;;;;;5033834;28;20028;-69
2021/01/23 08:37:08;;;;;;;13.85;9.35;;;;;;;;;;5032461;28;20379;-69
2021/01/23 08:39:47;;;;;;;18.75;11.45;;;;;;;;;;5032384;28;20026;-69
2021/01/23 08:42:13;;;;;;;12.55;8.10;;;;;;;;;;5033567;28;20030;-69
2021/01/23 08:44:39;;;;;;;14.65;9.45;;;;;;;;;;5034051;28;20031;-69
2021/01/23 08:47:05;;;;;;;14.65;9.75;;;;;;;;;;5034118;28;20032;-69
2021/01/23 08:49:31;;;;;;;11.77;8.10;;;;;;;;;;5033307;28;20014;-69
2021/01/23 08:51:57;;;;;;;12.98;9.38;;;;;;;;;;5032635;28;20076;-66
2021/01/23 08:54:23;;;;;;;13.43;8.02;;;;;;;;;;5033584;28;20017;-66
2021/01/23 08:56:48;;;;;;;16.35;8.23;;;;;;;;;;5033362;28;20111;-66
2021/01/23 08:59:15;;;;;;;15.02;8.77;;;;;;;;;;5030520;28;20021;-71
2021/01/23 09:01:41;;;;;;;15.70;9.63;;;;;;;;;;5033143;28;20057;-70
2021/01/23 09:04:06;;;;;;;15.18;9.18;;;;;;;;;;5032791;28;20054;-70
2021/01/23 09:06:32;;;;;;;18.63;10.85;;;;;;;;;;5034006;28;20444;-70
2021/01/23 09:08:57;;;;;;;18.52;11.27;;;;;;;;;;5033761;28;20025;-70
2021/01/23 09:11:23;;;;;;;21.58;10.77;;;;;;;;;;5031620;28;20120;-70
2021/01/23 09:13:48;;;;;;;18.48;10.50;;;;;;;;;;5032707;28;20407;-70
2021/01/23 09:16:15;;;;;;;21.60;10.10;;;;;;;;;;5033919;28;20025;-71
2021/01/23 09:18:40;;;;;;;16.27;9.45;;;;;;;;;;5029430;28;20014;-64
2021/01/23 09:21:06;;;;;;;16.05;10.00;;;;;;;;;;5032478;28;20080;-65
2021/01/23 09:23:31;;;;;;;16.27;9.65;;;;;;;;;;5033369;28;20028;-65
2021/01/23 09:25:58;;;;;;;16.35;11.35;;;;;;;;;;5033365;28;20036;-65
2021/01/23 09:28:25;;;;;;;16.42;11.75;;;;;;;;;;5032247;28;20025;-66
2021/01/23 09:30:50;;;;;;;18.27;12.68;;;;;;;;;;5032001;28;20029;-66
2021/01/23 09:33:16;;;;;;;16.48;13.15;;;;;;;;;;5032620;28;20036;-66
2021/01/23 09:35:41;;;;;;;30.52;19.25;;;;;;;;;;5033383;28;20110;-66
2021/01/23 09:38:07;;;;;;;26.48;15.40;;;;;;;;;;5033059;28;20464;-65
2021/01/23 09:40:33;;;;;;;22.20;14.43;;;;;;;;;;5033275;28;20124;-65
2021/01/23 09:42:58;;;;;;;31.73;19.48;;;;;;;;;;5033268;28;20028;-65
2021/01/23 09:45:24;;;;;;;28.42;15.90;;;;;;;;;;5030650;28;20017;-65
2021/01/23 09:47:49;;;;;;;35.70;19.73;;;;;;;;;;5032240;28;20067;-65
2021/01/23 09:50:20;;;;;;;14.30;9.55;;;;;;;;;;5029684;28;20035;-66
2021/01/23 09:52:46;;;;;;;19.42;12.18;;;;;;;;;;5032080;28;20113;-66
2021/01/23 09:55:12;;;;;;;16.13;10.48;;;;;;;;;;5032764;28;20048;-66
2021/01/23 09:57:38;;;;;;;16.42;10.55;;;;;;;;;;5033392;28;20037;-65
2021/01/23 10:00:04;;;;;;;13.35;8.98;;;;;;;;;;5032984;28;20017;-65
2021/01/23 10:02:39;;;;;;;15.13;10.30;;;;;;;;;;5031087;28;20083;-65
2021/01/23 10:05:05;;;;;;;11.55;8.55;;;;;;;;;;5031624;28;20037;-65
2021/01/23 10:07:30;;;;;;;14.60;9.77;;;;;;;;;;5031573;28;20026;-65
2021/01/23 10:09:56;;;;;;;24.05;13.07;;;;;;;;;;5027835;28;20037;-65
2021/01/23 10:12:22;;;;;;;13.02;9.00;;;;;;;;;;5032220;28;20480;-65
2021/01/23 10:14:47;;;;;;;16.08;8.95;;;;;;;;;;5031636;28;20017;-65
2021/01/23 10:17:14;;;;;;;15.63;8.80;;;;;;;;;;5029717;28;20028;-65
2021/01/23 10:19:39;;;;;;;10.77;7.95;;;;;;;;;;5029134;28;20036;-65
2021/01/23 10:22:05;;;;;;;14.43;8.40;;;;;;;;;;5031759;28;20032;-65
2021/01/23 10:24:30;;;;;;;10.77;7.70;;;;;;;;;;5030814;28;20376;-65
2021/01/23 10:26:56;;;;;;;9.60;6.50;;;;;;;;;;5032695;28;20033;-65
2021/01/23 10:29:21;;;;;;;9.68;6.43;;;;;;;;;;5034685;28;20010;-65
2021/01/23 10:31:49;;;;;;;11.13;6.55;;;;;;;;;;5035859;28;20026;-64
2021/01/23 10:34:15;;;;;;;14.85;8.23;;;;;;;;;;5035464;28;20427;-65
2021/01/23 10:36:40;;;;;;;19.08;9.63;;;;;;;;;;5035072;28;20034;-65
2021/01/23 10:39:06;;;;;;;13.65;7.88;;;;;;;;;;5035881;28;20056;-65
2021/01/23 10:41:31;;;;;;;17.75;9.60;;;;;;;;;;5036086;28;20124;-64
2021/01/23 10:43:57;;;;;;;13.00;7.32;;;;;;;;;;5035775;28;20021;-64
2021/01/23 10:46:22;;;;;;;19.25;9.70;;;;;;;;;;5035335;28;20036;-64
2021/01/23 10:48:48;;;;;;;13.63;8.85;;;;;;;;;;5035968;28;20357;-64
2021/01/23 10:51:14;;;;;;;10.35;7.10;;;;;;;;;;5035808;28;20064;-64
2021/01/23 10:53:40;;;;;;;12.40;7.65;;;;;;;;;;5035960;28;20010;-64
2021/01/23 10:56:06;;;;;;;12.32;9.25;;;;;;;;;;5035748;28;20057;-64
2021/01/23 10:58:35;;;;;;;11.93;7.05;;;;;;;;;;5035192;28;20034;-64
2021/01/23 11:01:00;;;;;;;8.07;6.05;;;;;;;;;;5035738;28;20112;-64
2021/01/23 11:03:28;;;;;;;8.25;6.00;;;;;;;;;;5030815;28;20096;-64
2021/01/23 11:05:55;;;;;;;9.05;6.38;;;;;;;;;;5032833;28;20116;-65
2021/01/23 11:08:21;;;;;;;13.02;8.07;;;;;;;;;;5034598;28;20020;-65
2021/01/23 11:10:47;;;;;;;12.57;8.15;;;;;;;;;;5033471;28;20049;-64
2021/01/23 11:13:12;;;;;;;13.00;7.88;;;;;;;;;;5034307;28;20428;-64
2021/01/23 11:15:38;;;;;;;13.73;7.90;;;;;;;;;;5031648;28;20383;-64
2021/01/23 11:18:03;;;;;;;11.98;8.30;;;;;;;;;;5035244;28;20075;-64
2021/01/23 11:20:29;;;;;;;11.63;7.63;;;;;;;;;;5034366;28;20026;-64
2021/01/23 11:22:54;;;;;;;9.80;6.75;;;;;;;;;;5035440;28;20022;-64
2021/01/23 11:25:20;;;;;;;16.33;9.63;;;;;;;;;;5034760;28;20030;-64
2021/01/23 11:27:45;;;;;;;12.38;8.38;;;;;;;;;;5034129;28;20033;-63
2021/01/23 11:30:12;;;;;;;19.60;12.70;;;;;;;;;;5035564;28;20028;-64
2021/01/23 11:32:38;;;;;;;13.00;9.07;;;;;;;;;;5033323;28;20364;-64
2021/01/23 11:35:04;;;;;;;9.95;7.13;;;;;;;;;;5034958;28;20024;-64
2021/01/23 11:37:30;;;;;;;9.98;7.18;;;;;;;;;;5034904;28;20024;-64
2021/01/23 11:39:56;;;;;;;8.98;6.05;;;;;;;;;;5033633;28;20069;-64
2021/01/23 11:42:21;;;;;;;10.80;6.95;;;;;;;;;;5034922;28;20060;-65
2021/01/23 11:44:48;;;;;;;9.25;6.38;;;;;;;;;;5034404;28;20045;-65
2021/01/23 11:47:13;;;;;;;9.52;6.05;;;;;;;;;;5033842;28;20024;-65
2021/01/23 11:49:39;;;;;;;9.50;6.72;;;;;;;;;;5033851;28;20396;-65
2021/01/23 11:52:04;;;;;;;4.28;2.78;;;;;;;;;;5035112;28;20109;-65
2021/01/23 11:54:31;;;;;;;7.80;5.38;;;;;;;;;;5032911;28;20026;-65
2021/01/23 11:56:57;;;;;;;6.75;4.30;;;;;;;;;;5033175;28;20551;-65
2021/01/23 11:59:22;;;;;;;8.13;4.65;;;;;;;;;;5032748;28;20116;-65
2021/01/23 12:01:49;;;;;;;7.65;4.53;;;;;;;;;;5034263;28;20025;-64
2021/01/23 12:04:14;;;;;;;9.43;4.40;;;;;;;;;;5032967;28;20064;-64
2021/01/23 12:06:40;;;;;;;8.02;4.55;;;;;;;;;;5034053;28;20056;-64
2021/01/23 12:09:05;;;;;;;6.85;4.57;;;;;;;;;;5033676;28;20444;-64
2021/01/23 12:11:31;;;;;;;4.05;3.38;;;;;;;;;;5033704;28;20551;-64
2021/01/23 12:13:57;;;;;;;8.80;6.68;;;;;;;;;;5033751;28;20514;-64
2021/01/23 12:16:23;;;;;;;16.48;10.55;;;;;;;;;;5033693;28;20045;-65
2021/01/23 12:18:48;;;;;;;19.27;11.27;;;;;;;;;;5033739;28;20029;-65
2021/01/23 12:21:14;;;;;;;20.48;11.32;;;;;;;;;;5034001;28;20021;-64
2021/01/23 12:23:39;;;;;;;17.27;10.45;;;;;;;;;;5033943;28;20480;-64
2021/01/23 12:26:05;;;;;;;15.02;9.18;;;;;;;;;;5032598;28;20099;-64
2021/01/23 12:28:30;;;;;;;19.02;11.50;;;;;;;;;;5034017;28;20021;-64
2021/01/23 12:30:56;;;;;;;19.27;10.93;;;;;;;;;;5033930;28;20079;-65
2021/01/23 12:33:21;;;;;;;17.80;10.20;;;;;;;;;;5016088;28;20033;-64
2021/01/23 12:35:46;;;;;;;20.20;10.27;;;;;;;;;;5033770;28;20032;-64
2021/01/23 12:38:12;;;;;;;26.33;14.60;;;;;;;;;;5033636;28;20452;-65
2021/01/23 12:40:37;;;;;;;26.55;14.07;;;;;;;;;;5033609;28;20384;-65
2021/01/23 12:43:03;;;;;;;25.40;14.40;;;;;;;;;;5032075;28;20033;-64
2021/01/23 12:45:28;;;;;;;15.68;10.60;;;;;;;;;;5033744;28;20804;-63
2021/01/23 12:47:54;;;;;;;13.75;9.90;;;;;;;;;;5033497;28;20411;-64
2021/01/23 12:50:19;;;;;;;16.42;11.40;;;;;;;;;;5033552;28;20024;-64
2021/01/23 12:52:45;;;;;;;11.48;8.00;;;;;;;;;;5032422;28;20036;-64
2021/01/23 12:55:11;;;;;;;20.15;14.73;;;;;;;;;;5033463;28;20017;-64
2021/01/23 12:57:39;;;;;;;20.25;14.65;;;;;;;;;;5032078;28;20113;-64
2021/01/23 13:00:06;;;;;;;20.48;15.13;;;;;;;;;;5033316;28;20064;-64
2021/01/23 13:02:31;;;;;;;19.40;13.85;;;;;;;;;;5032642;28;20159;-64
2021/01/23 13:04:57;;;;;;;18.02;11.45;;;;;;;;;;5030121;28;20112;-64
2021/01/23 13:07:24;;;;;;;28.98;17.00;;;;;;;;;;5028956;28;20113;-64
2021/01/23 13:09:49;;;;;;;32.65;22.30;;;;;;;;;;5029980;28;20050;-64
2021/01/23 13:12:16;;;;;;;26.45;15.40;;;;;;;;;;5030443;28;20384;-64
2021/01/23 13:14:42;;;;;;;20.75;12.13;;;;;;;;;;5030305;28;20037;-64
2021/01/23 13:17:07;;;;;;;18.77;10.18;;;;;;;;;;5029984;28;20438;-64
2021/01/23 13:19:33;;;;;;;15.57;8.25;;;;;;;;;;5028696;28;20032;-64
2021/01/23 13:21:58;;;;;;;12.27;7.40;;;;;;;;;;5030032;28;20041;-64
2021/01/23 13:24:24;;;;;;;14.15;8.50;;;;;;;;;;5028852;28;20033;-64
2021/01/23 13:26:49;;;;;;;22.85;13.00;;;;;;;;;;5028608;28;20038;-64
2021/01/23 13:29:15;;;;;;;35.53;18.08;;;;;;;;;;5029887;28;20045;-64
2021/01/23 13:31:40;;;;;;;33.03;15.70;;;;;;;;;;5030486;28;20061;-64
2021/01/23 13:34:06;;;;;;;24.45;13.10;;;;;;;;;;5031537;28;20108;-64
2021/01/23 13:36:31;;;;;;;33.50;16.10;;;;;;;;;;5020442;28;20026;-64
2021/01/23 13:38:57;;;;;;;37.47;19.65;;;;;;;;;;5022080;28;20022;-63
2021/01/23 13:41:22;;;;;;;30.00;20.13;;;;;;;;;;5022056;28;20030;-63
2021/01/23 13:43:48;;;;;;;33.15;20.80;;;;;;;;;;5026900;28;20029;-63
2021/01/23 13:46:14;;;;;;;25.42;15.10;;;;;;;;;;5031462;28;20034;-63
2021/01/23 13:48:40;;;;;;;25.90;18.15;;;;;;;;;;5032466;28;20079;-63
2021/01/23 13:51:05;;;;;;;26.20;18.58;;;;;;;;;;5031073;28;20029;-63
2021/01/23 13:53:31;;;;;;;26.00;18.05;;;;;;;;;;5024076;28;20021;-63
2021/01/23 13:55:56;;;;;;;31.33;20.13;;;;;;;;;;5029601;28;20835;-63
2021/01/23 13:58:23;;;;;;;28.67;17.67;;;;;;;;;;5029642;28;20407;-63
2021/01/23 14:00:52;;;;;;;17.65;12.05;;;;;;;;;;5011756;28;20029;-63
2021/01/23 14:03:18;;;;;;;19.83;12.45;;;;;;;;;;5029324;28;20503;-63
2021/01/23 14:05:43;;;;;;;25.73;15.60;;;;;;;;;;5031323;28;20025;-63
2021/01/23 14:08:09;;;;;;;27.35;14.80;;;;;;;;;;5033583;28;20356;-63
2021/01/23 14:10:38;;;;;;;30.15;16.45;;;;;;;;;;5032584;28;20053;-63
2021/01/23 14:13:04;;;;;;;27.85;16.60;;;;;;;;;;5033216;28;20025;-63
2021/01/23 14:15:29;;;;;;;25.20;13.82;;;;;;;;;;5033094;28;20033;-63
2021/01/23 14:17:55;;;;;;;28.55;15.75;;;;;;;;;;5032880;28;20025;-63
2021/01/23 14:20:21;;;;;;;44.58;26.02;;;;;;;;;;5032961;28;20025;-63
2021/01/23 14:22:47;;;;;;;46.80;25.88;;;;;;;;;;5033033;28;20045;-63
2021/01/23 14:25:15;;;;;;;42.35;26.77;;;;;;;;;;5064759;28;20130;-64
2021/01/23 14:27:40;;;;;;;41.20;24.80;;;;;;;;;;5032217;28;20119;-63